»·PEaware :: SWA1730 KLAS-KDEN

SWA1730 :: KLAS-KDEN

FLIGHT INFORMATION

Flight Status: Arrived
Operator:
Southwest Airlines
More flights by this operator :: More flights under this callsign
Pilot: Matt B. (19713)
Aircraft: BOEING 737-700
(B737)
More flights by this aircraft type
Origin: KLAS McCarran Intl
United States
Destination: KDEN Denver Intl
United States
More flights between these airports :: More routes between these airports
Route: TRALR9 DVC WOLLF CREDE3
File this flight plan on PilotEdge
Remarks:
Altitude:
(Current/Filed)
39,000ft
Speed:
(Current/Filed)
450kts
Departed: 15-May-19 10:59 AM
Arrived: 15-May-19 12:28 PM
Distance/Time
Traveled:
545nm/1:29
Distance/Time
To Go:
Arrived

Flight Plot

Page will automatically refresh every two minutes.

Flight plan parsing failed; only flown route is shown


Map Options




Map Legend


Flown Route
Filed Route
Departure Airport
Arrival Airport
Navaid (VOR, NDB)
Fix

Horizontal Profiles

Position Reports

Time Latitude Longitude Heading Altitude Ground
Speed
15-May-19 10:41 36.080111 -115.145605 279 2188ft 0kts
15-May-19 10:42 36.080111 -115.145605 279 2188ft 0kts
15-May-19 10:43 36.080111 -115.145605 279 2188ft 0kts
15-May-19 10:44 36.080111 -115.145605 279 2188ft 0kts
15-May-19 10:45 36.080111 -115.145605 279 2188ft 0kts
15-May-19 10:46 36.080111 -115.145605 279 2188ft 0kts
15-May-19 10:47 36.080111 -115.145605 279 2188ft 0kts
15-May-19 10:48 36.080111 -115.145605 279 2188ft 0kts
15-May-19 10:49 36.080085 -115.145166 261 2188ft 2kts
15-May-19 10:50 36.080358 -115.144848 179 2188ft 0kts
15-May-19 10:51 36.080358 -115.144848 179 2188ft 0kts
15-May-19 10:52 36.078956 -115.144845 179 2188ft 0kts
15-May-19 10:53 36.078209 -115.143932 86 2188ft 13kts
15-May-19 10:54 36.078273 -115.137301 90 2188ft 17kts
15-May-19 10:55 36.078284 -115.131771 88 2188ft 21kts
15-May-19 10:56 36.078268 -115.124521 91 2188ft 21kts
15-May-19 10:57 36.077428 -115.121364 145 2188ft 2kts
15-May-19 10:58 36.076412 -115.138295 269 2190ft 148kts
15-May-19 10:59 36.077809 -115.198513 268 4274ft 193kts
15-May-19 11:00 36.058214 -115.269101 208 5804ft 261kts
15-May-19 11:01 35.985635 -115.292751 193 7020ft 277kts
15-May-19 11:02 35.910637 -115.278706 164 9692ft 277kts
15-May-19 11:03 35.860268 -115.206162 95 12074ft 354kts
15-May-19 11:04 35.867879 -115.079221 85 14895ft 384kts
15-May-19 11:05 35.914920 -114.956191 61 17928ft 411kts
15-May-19 11:06 35.969794 -114.829908 66 18914ft 418kts
15-May-19 11:07 36.019250 -114.699820 66 18920ft 418kts
15-May-19 11:08 36.068310 -114.572277 65 20827ft 431kts
15-May-19 11:09 36.121035 -114.435497 65 23155ft 449kts
15-May-19 11:10 36.175094 -114.293421 66 25219ft 464kts
15-May-19 11:11 36.207570 -114.138068 84 27091ft 472kts
15-May-19 11:12 36.225879 -113.974760 84 28738ft 483kts
15-May-19 11:13 36.242149 -113.833183 84 29987ft 490kts
15-May-19 11:14 36.261932 -113.665643 84 31458ft 495kts
15-May-19 11:15 36.281594 -113.497232 84 33059ft 493kts
15-May-19 11:16 36.300456 -113.329499 84 34521ft 491kts
15-May-19 11:17 36.333297 -113.165692 67 35830ft 491kts
15-May-19 11:18 36.391133 -113.010673 66 36825ft 494kts
15-May-19 11:19 36.448570 -112.855457 66 37896ft 493kts
15-May-19 11:20 36.505960 -112.700929 65 38827ft 492kts
15-May-19 11:21 36.563018 -112.545811 66 39155ft 492kts
15-May-19 11:22 36.619388 -112.391427 66 39154ft 490kts
15-May-19 11:23 36.675548 -112.236730 66 39153ft 490kts
15-May-19 11:24 36.731425 -112.082005 66 39147ft 489kts
15-May-19 11:25 36.787011 -111.927241 65 39132ft 486kts
15-May-19 11:26 36.842234 -111.772796 65 39111ft 486kts
15-May-19 11:27 36.897047 -111.618692 65 39090ft 485kts
15-May-19 11:28 36.951510 -111.464784 65 39080ft 485kts
15-May-19 11:29 37.004824 -111.313358 65 39082ft 484kts
15-May-19 11:30 37.058820 -111.159214 65 39090ft 483kts
15-May-19 11:31 37.112559 -111.005026 65 39100ft 483kts
15-May-19 11:32 37.165975 -110.850970 65 39106ft 482kts
15-May-19 11:33 37.219148 -110.696796 65 39110ft 481kts
15-May-19 11:34 37.272121 -110.542443 66 39137ft 481kts
15-May-19 11:35 37.324056 -110.390322 65 39159ft 480kts
15-May-19 11:36 37.376332 -110.236414 65 39179ft 479kts
15-May-19 11:37 37.428632 -110.081623 66 39200ft 479kts
15-May-19 11:38 37.480395 -109.927591 65 39221ft 477kts
15-May-19 11:39 37.531968 -109.773353 65 39240ft 478kts
15-May-19 11:40 37.583341 -109.618854 65 39254ft 477kts
15-May-19 11:41 37.634347 -109.464702 65 39259ft 476kts
15-May-19 11:42 37.683827 -109.314354 65 39252ft 476kts
15-May-19 11:43 37.734409 -109.160619 65 39238ft 475kts
15-May-19 11:44 37.784481 -109.006271 65 39221ft 473kts
15-May-19 11:45 37.843755 -108.859105 55 39207ft 469kts
15-May-19 11:46 37.912444 -108.718700 55 39198ft 468kts
15-May-19 11:47 37.980450 -108.578550 55 39205ft 466kts
15-May-19 11:48 38.048247 -108.439470 55 39218ft 466kts
15-May-19 11:49 38.115928 -108.299511 55 39230ft 465kts
15-May-19 11:50 38.183391 -108.159190 55 39249ft 465kts
15-May-19 11:51 38.250583 -108.018765 55 39243ft 465kts
15-May-19 11:52 38.317750 -107.878297 55 39212ft 464kts
15-May-19 11:53 38.384442 -107.737497 55 39195ft 464kts
15-May-19 11:54 38.451001 -107.596190 56 39208ft 463kts
15-May-19 11:55 38.515171 -107.453473 57 39234ft 463kts
15-May-19 11:56 38.578944 -107.310492 57 39225ft 463kts
15-May-19 11:57 38.642623 -107.167786 57 39264ft 461kts
15-May-19 11:58 38.706225 -107.025119 57 39287ft 461kts
15-May-19 11:59 38.769532 -106.882469 57 39300ft 460kts
15-May-19 12:00 38.831969 -106.740106 57 39335ft 460kts
15-May-19 12:01 38.894356 -106.601617 55 39344ft 459kts
15-May-19 12:02 38.959517 -106.461138 56 38721ft 456kts
15-May-19 12:03 39.024153 -106.320467 56 35936ft 458kts
15-May-19 12:04 39.088184 -106.179111 57 33025ft 457kts
15-May-19 12:05 39.150565 -106.038969 58 30726ft 443kts
15-May-19 12:06 39.210643 -105.903500 58 28535ft 428kts
15-May-19 12:07 39.268422 -105.771585 59 26320ft 415kts
15-May-19 12:08 39.324390 -105.643671 59 24120ft 404kts
15-May-19 12:09 39.378917 -105.519021 59 22316ft 385kts
15-May-19 12:10 39.433487 -105.408304 54 21196ft 356kts
15-May-19 12:11 39.489263 -105.303172 55 19446ft 348kts
15-May-19 12:12 39.542826 -105.201061 55 17125ft 338kts
15-May-19 12:13 39.596374 -105.098877 55 16018ft 352kts
15-May-19 12:14 39.649452 -104.996884 55 14906ft 330kts
15-May-19 12:15 39.699935 -104.899173 55 13866ft 323kts
15-May-19 12:16 39.771018 -104.842051 3 12773ft 311kts
15-May-19 12:17 39.855541 -104.839756 358 11797ft 289kts
15-May-19 12:18 39.930137 -104.839125 357 11011ft 252kts
15-May-19 12:19 40.000685 -104.839902 357 10390ft 249kts
15-May-19 12:20 40.070031 -104.840113 358 8225ft 247kts
15-May-19 12:21 40.113435 -104.789359 94 8010ft 253kts
15-May-19 12:22 40.065561 -104.729764 147 8003ft 236kts
15-May-19 12:23 40.016847 -104.689121 167 7696ft 192kts
15-May-19 12:24 39.970391 -104.685984 181 6766ft 155kts
15-May-19 12:25 39.927316 -104.686536 180 6020ft 155kts
15-May-19 12:26 39.885593 -104.686950 181 5439ft 105kts
15-May-19 12:27 39.875164 -104.684941 167 5439ft 13kts
15-May-19 12:28 39.870973 -104.683926 153 5439ft 19kts
15-May-19 12:29 39.865884 -104.683893 180 5439ft 23kts
15-May-19 12:30 39.859537 -104.683951 180 5439ft 24kts
15-May-19 12:31 39.856727 -104.680046 90 5439ft 20kts
15-May-19 12:32 39.856666 -104.672337 90 5439ft 19kts

Navigation Log

Ident Type
Flight plan parsing failed, navigation log unavailable